Terminal Aerodrome Forecast
Issued by NWS Louisville, KY

Home | Current Version | Previous Version | Text Only | Print | Product List | Glossary On
Versions: 1 2 3 4 5 6 7 8 9 10 11 12 13 14 15 16 17
000
FTUS43 KLMK 021100
TAFBWG
TAF
KBWG 021120Z 0212/0312 VRB03KT P6SM SCT070
     FM021500 18009KT P6SM SCT050
     FM030700 18010KT 6SM -SHRA VCTS OVC040CB=

USA.gov is the U.S. government's official web portal to all federal, state and local government web resources and services.